createdAt,value
2017-12-29T00:00:45.969Z,68.80
2017-12-29T00:03:14.486Z,69.90
2017-12-29T00:05:42.137Z,69.90
2017-12-29T00:08:09.811Z,66.00
2017-12-29T00:10:37.432Z,66.90
2017-12-29T00:13:05.076Z,65.50
2017-12-29T00:15:32.693Z,67.80
2017-12-29T00:18:00.346Z,68.40
2017-12-29T00:20:27.959Z,69.60
2017-12-29T00:22:56.333Z,68.30
2017-12-29T00:25:24.977Z,70.20
2017-12-29T00:27:52.592Z,70.10
2017-12-29T00:30:20.247Z,68.60
2017-12-29T00:32:48.612Z,68.80
2017-12-29T00:35:16.232Z,67.00
2017-12-29T00:37:43.886Z,64.70
2017-12-29T00:40:11.701Z,65.40
2017-12-29T00:42:39.353Z,65.70
2017-12-29T00:45:07.742Z,66.00
2017-12-29T00:47:35.597Z,65.90
2017-12-29T00:50:03.236Z,66.70
2017-12-29T00:52:30.860Z,67.50
2017-12-29T00:54:59.261Z,68.60
2017-12-29T00:57:26.891Z,68.50
2017-12-29T00:59:54.590Z,64.00
2017-12-29T01:02:22.249Z,65.30
2017-12-29T01:04:51.518Z,64.60
2017-12-29T01:07:19.447Z,64.60
2017-12-29T01:09:47.090Z,65.20
2017-12-29T01:12:14.896Z,64.80
2017-12-29T01:14:43.297Z,65.10
2017-12-29T01:17:10.929Z,65.10
2017-12-29T01:19:38.593Z,65.00
2017-12-29T01:22:06.213Z,63.70
2017-12-29T01:24:33.829Z,65.40
2017-12-29T01:27:02.341Z,68.40
2017-12-29T01:29:29.949Z,67.90
2017-12-29T01:31:58.364Z,67.30
2017-12-29T01:34:26.004Z,67.30
2017-12-29T01:36:53.618Z,67.00
2017-12-29T01:39:22.034Z,68.50
2017-12-29T01:41:49.658Z,68.50
2017-12-29T01:44:17.299Z,66.40
2017-12-29T01:46:44.981Z,66.40
2017-12-29T01:49:12.601Z,66.20
2017-12-29T01:51:47.962Z,63.50
2017-12-29T01:54:15.612Z,66.00
2017-12-29T01:56:43.261Z,62.70
2017-12-29T01:59:10.901Z,62.90
2017-12-29T02:01:38.528Z,62.60
2017-12-29T02:04:06.171Z,62.10
2017-12-29T02:06:33.783Z,61.50
2017-12-29T02:09:01.461Z,62.20
2017-12-29T02:11:29.074Z,62.50
2017-12-29T02:13:56.685Z,62.10
2017-12-29T02:16:24.329Z,61.60
2017-12-29T02:18:51.945Z,61.90
2017-12-29T02:21:19.594Z,64.60
2017-12-29T02:23:47.197Z,62.10
2017-12-29T02:26:15.613Z,62.10
2017-12-29T02:28:43.258Z,62.20
2017-12-29T02:31:10.868Z,64.90
2017-12-29T02:33:38.515Z,63.20
2017-12-29T02:36:06.157Z,62.20
2017-12-29T02:38:33.770Z,62.80
2017-12-29T02:41:01.421Z,64.80
2017-12-29T02:43:29.052Z,61.90
2017-12-29T02:45:56.727Z,63.00
2017-12-29T02:48:25.105Z,61.60
2017-12-29T02:50:52.715Z,61.40
2017-12-29T02:53:21.149Z,63.70
2017-12-29T02:55:48.773Z,63.60
2017-12-29T02:58:16.423Z,62.00
2017-12-29T03:00:44.077Z,63.60
2017-12-29T03:03:11.768Z,64.30
2017-12-29T03:05:39.425Z,64.60
2017-12-29T03:08:07.827Z,65.20
2017-12-29T03:10:35.673Z,65.10
2017-12-29T03:13:03.321Z,62.90
2017-12-29T03:15:30.924Z,65.10
2017-12-29T03:17:58.581Z,62.30
2017-12-29T03:20:26.192Z,60.60
2017-12-29T03:22:53.844Z,63.50
2017-12-29T03:25:21.737Z,62.20
2017-12-29T03:27:51.293Z,60.80
2017-12-29T03:30:18.937Z,60.80
2017-12-29T03:32:46.837Z,61.20
2017-12-29T03:35:14.592Z,62.10
2017-12-29T03:37:42.227Z,57.60
2017-12-29T03:40:10.609Z,57.50
2017-12-29T03:42:38.268Z,57.50
2017-12-29T03:45:05.942Z,57.30
2017-12-29T03:47:33.590Z,57.30
2017-12-29T03:50:01.197Z,58.60
2017-12-29T03:52:30.224Z,56.30
2017-12-29T03:54:57.878Z,57.20
2017-12-29T03:57:25.643Z,56.60
2017-12-29T03:59:53.277Z,55.90
2017-12-29T04:02:21.685Z,55.80
2017-12-29T04:04:49.289Z,55.80
2017-12-29T04:07:16.936Z,56.10
2017-12-29T04:09:44.630Z,56.20
2017-12-29T04:12:12.272Z,56.50
2017-12-29T04:14:39.973Z,55.20
2017-12-29T04:17:07.653Z,55.60
2017-12-29T04:19:35.322Z,56.60
2017-12-29T04:22:02.925Z,53.70
2017-12-29T04:24:31.329Z,52.90
2017-12-29T04:26:58.959Z,52.80
2017-12-29T04:29:26.604Z,54.00
2017-12-29T04:31:54.236Z,53.40
2017-12-29T04:34:22.642Z,52.60
2017-12-29T04:36:50.279Z,52.50
2017-12-29T04:39:17.885Z,52.40
2017-12-29T04:41:45.573Z,52.90
2017-12-29T04:44:13.229Z,52.30
2017-12-29T04:46:40.869Z,54.20
2017-12-29T04:49:08.508Z,54.80
2017-12-29T04:51:36.140Z,53.00
2017-12-29T04:54:03.808Z,54.40
2017-12-29T04:56:31.456Z,53.90
2017-12-29T04:58:59.061Z,52.20
2017-12-29T05:01:27.481Z,53.20
2017-12-29T05:03:55.093Z,53.20
2017-12-29T05:06:22.709Z,53.90
2017-12-29T05:08:51.125Z,52.90
2017-12-29T05:11:18.731Z,52.80
2017-12-29T05:13:47.145Z,53.60
2017-12-29T05:16:14.868Z,53.60
2017-12-29T05:18:42.493Z,52.70
2017-12-29T05:21:10.897Z,52.40
2017-12-29T05:23:38.509Z,52.50
2017-12-29T05:26:06.171Z,51.90
2017-12-29T05:28:33.785Z,51.60
2017-12-29T05:31:02.269Z,52.90
2017-12-29T05:33:29.915Z,52.80
2017-12-29T05:35:57.537Z,51.10
2017-12-29T05:38:25.189Z,51.40
2017-12-29T05:40:52.800Z,52.20
2017-12-29T05:43:20.426Z,51.90
2017-12-29T05:45:48.199Z,54.10
2017-12-29T05:48:16.051Z,55.20
2017-12-29T05:50:43.778Z,52.70
2017-12-29T05:53:11.436Z,54.00
2017-12-29T05:55:39.073Z,54.10
2017-12-29T05:58:06.734Z,51.70
2017-12-29T06:00:34.557Z,53.10
2017-12-29T06:03:02.217Z,52.60
2017-12-29T06:05:29.837Z,51.70
2017-12-29T06:08:04.174Z,51.50
2017-12-29T06:10:31.905Z,51.00
2017-12-29T06:12:59.525Z,53.10
2017-12-29T06:15:27.940Z,51.70
2017-12-29T06:17:55.969Z,51.70
2017-12-29T06:20:23.620Z,51.10
2017-12-29T06:22:52.864Z,50.50
2017-12-29T06:25:21.442Z,51.70
2017-12-29T06:27:49.107Z,51.10
2017-12-29T06:30:16.717Z,51.50
2017-12-29T06:32:44.496Z,53.30
2017-12-29T06:35:12.145Z,51.70
2017-12-29T06:37:39.750Z,51.20
2017-12-29T06:40:07.384Z,50.40
2017-12-29T06:42:35.017Z,50.50
2017-12-29T06:45:02.672Z,51.10
2017-12-29T06:47:30.301Z,50.30
2017-12-29T06:49:57.916Z,51.70
2017-12-29T06:52:25.714Z,51.60
2017-12-29T06:54:53.328Z,51.00
2017-12-29T06:57:20.969Z,50.80
2017-12-29T06:59:48.573Z,51.10
2017-12-29T07:02:16.179Z,50.50
2017-12-29T07:04:43.822Z,51.10
2017-12-29T07:07:11.427Z,51.80
2017-12-29T07:09:39.860Z,51.50
2017-12-29T07:12:07.465Z,51.50
2017-12-29T07:14:35.113Z,52.10
2017-12-29T07:17:02.769Z,50.60
2017-12-29T07:19:30.425Z,50.90
2017-12-29T07:21:58.125Z,51.00
2017-12-29T07:24:26.513Z,51.10
2017-12-29T07:26:54.150Z,51.00
2017-12-29T07:29:21.817Z,51.90
2017-12-29T07:31:49.449Z,50.80
2017-12-29T07:34:17.105Z,50.50
2017-12-29T07:36:45.290Z,51.00
2017-12-29T07:39:12.898Z,50.50
2017-12-29T07:41:40.553Z,51.90
2017-12-29T07:44:08.165Z,50.80
2017-12-29T07:46:35.857Z,50.30
2017-12-29T07:49:03.484Z,50.30
2017-12-29T07:51:31.109Z,50.60
2017-12-29T07:53:58.756Z,50.00
2017-12-29T07:56:26.365Z,51.40
2017-12-29T07:58:54.032Z,50.50
2017-12-29T08:01:21.741Z,49.90
2017-12-29T08:03:49.352Z,49.70
2017-12-29T08:06:17.768Z,49.50
2017-12-29T08:08:45.425Z,49.50
2017-12-29T08:11:13.075Z,48.30
2017-12-29T08:13:40.689Z,48.00
2017-12-29T08:16:08.418Z,48.80
2017-12-29T08:18:36.080Z,49.00
2017-12-29T08:21:03.691Z,49.80
2017-12-29T08:23:32.098Z,47.30
2017-12-29T08:25:59.715Z,46.70
2017-12-29T08:28:27.354Z,47.10
2017-12-29T08:30:55.777Z,48.00
2017-12-29T08:33:23.394Z,48.00
2017-12-29T08:35:58.521Z,47.10
2017-12-29T08:38:26.453Z,48.60
2017-12-29T08:40:54.111Z,47.10
2017-12-29T08:43:21.721Z,46.40
2017-12-29T08:45:50.102Z,47.00
2017-12-29T08:48:17.744Z,46.90
2017-12-29T08:50:46.185Z,44.90
2017-12-29T08:53:13.861Z,44.90
2017-12-29T08:55:42.337Z,46.60
2017-12-29T08:58:09.971Z,46.70
2017-12-29T09:00:38.444Z,43.90
2017-12-29T09:03:06.186Z,43.90
2017-12-29T09:05:33.902Z,45.00
2017-12-29T09:08:01.721Z,44.30
2017-12-29T09:10:29.361Z,43.50
2017-12-29T09:12:57.009Z,43.40
2017-12-29T09:15:24.649Z,42.10
2017-12-29T09:17:52.293Z,42.80
2017-12-29T09:20:19.925Z,43.00
2017-12-29T09:22:48.125Z,40.80
2017-12-29T09:25:15.883Z,42.10
2017-12-29T09:27:43.523Z,41.50
2017-12-29T09:30:11.205Z,43.20
2017-12-29T09:32:38.816Z,41.00
2017-12-29T09:35:06.429Z,41.20
2017-12-29T09:37:34.120Z,42.60
2017-12-29T09:40:01.749Z,40.50
2017-12-29T09:42:29.357Z,41.60
2017-12-29T09:44:56.994Z,40.90
2017-12-29T09:47:24.617Z,41.00
2017-12-29T09:49:52.226Z,40.80
2017-12-29T09:52:19.875Z,40.80
2017-12-29T09:54:47.507Z,40.70
2017-12-29T09:57:15.125Z,41.00
2017-12-29T09:59:43.151Z,41.60
2017-12-29T10:02:10.756Z,41.20
2017-12-29T10:04:38.417Z,41.80
2017-12-29T10:07:06.033Z,40.40
2017-12-29T10:09:33.645Z,40.90
2017-12-29T10:12:01.300Z,40.20
2017-12-29T10:14:29.678Z,42.20
2017-12-29T10:16:57.357Z,42.10
2017-12-29T10:19:25.069Z,42.70
2017-12-29T10:21:52.918Z,40.10
2017-12-29T10:24:21.321Z,41.20
2017-12-29T10:26:48.982Z,41.20
2017-12-29T10:29:17.048Z,43.20
2017-12-29T10:31:44.697Z,41.20
2017-12-29T10:34:12.317Z,41.20
2017-12-29T10:36:39.971Z,41.30
2017-12-29T10:39:07.580Z,40.70
2017-12-29T10:41:35.238Z,39.80
2017-12-29T10:44:02.865Z,39.80
2017-12-29T10:46:31.297Z,40.20
2017-12-29T10:48:58.953Z,40.00
2017-12-29T10:51:26.599Z,41.30
2017-12-29T10:53:54.253Z,40.80
2017-12-29T10:56:21.869Z,41.00
2017-12-29T10:58:49.489Z,39.40
2017-12-29T11:01:17.206Z,41.00
2017-12-29T11:03:45.641Z,39.60
2017-12-29T11:06:13.286Z,39.50
2017-12-29T11:08:40.897Z,39.80
2017-12-29T11:11:08.520Z,40.10
2017-12-29T11:13:36.160Z,38.80
2017-12-29T11:16:04.601Z,39.30
2017-12-29T11:18:32.236Z,39.30
2017-12-29T11:20:59.844Z,38.20
2017-12-29T11:23:27.457Z,38.60
2017-12-29T11:25:56.033Z,38.60
2017-12-29T11:28:24.700Z,38.30
2017-12-29T11:30:53.109Z,37.40
2017-12-29T11:33:20.712Z,37.40
2017-12-29T11:35:49.088Z,36.80
2017-12-29T11:38:16.745Z,36.80
2017-12-29T11:40:44.397Z,38.90
2017-12-29T11:43:12.051Z,37.00
2017-12-29T11:45:39.707Z,36.90
2017-12-29T11:48:07.330Z,37.40
2017-12-29T11:50:35.261Z,37.40
2017-12-29T11:53:03.646Z,37.70
2017-12-29T11:55:31.305Z,37.70
2017-12-29T11:57:58.909Z,37.40
2017-12-29T12:00:27.289Z,36.80
2017-12-29T12:02:55.054Z,36.70
2017-12-29T12:05:22.666Z,37.70
2017-12-29T12:07:51.883Z,37.80
2017-12-29T12:10:19.500Z,37.60
2017-12-29T12:12:48.465Z,36.80
2017-12-29T12:15:16.203Z,36.70
2017-12-29T12:17:43.835Z,36.40
2017-12-29T12:20:11.527Z,36.70
2017-12-29T12:22:39.175Z,36.30
2017-12-29T12:25:07.561Z,34.70
2017-12-29T12:27:35.204Z,34.70
2017-12-29T12:30:02.850Z,34.30
2017-12-29T12:32:30.629Z,34.80
2017-12-29T12:34:58.236Z,33.90
2017-12-29T12:37:25.983Z,34.80
2017-12-29T12:39:53.639Z,35.40
2017-12-29T12:42:21.246Z,35.00
2017-12-29T12:44:48.891Z,35.20
2017-12-29T12:47:16.516Z,35.70
2017-12-29T12:49:44.164Z,35.30
2017-12-29T12:52:11.814Z,36.00
2017-12-29T12:54:39.424Z,36.10
2017-12-29T12:57:07.069Z,36.70
2017-12-29T12:59:34.724Z,35.40
2017-12-29T13:02:03.173Z,35.40
2017-12-29T13:04:30.817Z,33.50
2017-12-29T13:06:58.434Z,33.60
2017-12-29T13:09:26.109Z,31.50
2017-12-29T13:11:53.731Z,31.50
2017-12-29T13:14:21.337Z,32.10
2017-12-29T13:16:49.000Z,32.60
2017-12-29T13:19:16.610Z,30.70
2017-12-29T13:21:44.301Z,31.10
2017-12-29T13:24:11.907Z,31.70
2017-12-29T13:26:39.513Z,32.10
2017-12-29T13:29:07.913Z,30.10
2017-12-29T13:31:35.604Z,30.00
2017-12-29T13:34:03.252Z,29.70
2017-12-29T13:36:30.863Z,29.40
2017-12-29T13:38:58.481Z,29.10
2017-12-29T13:41:26.888Z,28.40
2017-12-29T13:43:54.577Z,28.30
2017-12-29T13:46:22.992Z,27.20
2017-12-29T13:48:50.605Z,27.20
2017-12-29T13:51:18.220Z,28.00
2017-12-29T13:53:45.990Z,29.20
2017-12-29T13:56:13.613Z,30.30
2017-12-29T13:58:41.263Z,30.10
2017-12-29T14:01:08.873Z,29.10
2017-12-29T14:03:36.649Z,31.00
2017-12-29T14:06:04.557Z,31.20
2017-12-29T14:08:32.216Z,31.80
2017-12-29T14:11:02.258Z,32.50
2017-12-29T14:13:29.869Z,33.30
2017-12-29T14:15:57.477Z,33.20
2017-12-29T14:18:25.161Z,34.60
2017-12-29T14:20:52.776Z,33.90
2017-12-29T14:23:20.413Z,35.50
2017-12-29T14:25:48.789Z,34.80
2017-12-29T14:28:16.404Z,34.80
2017-12-29T14:30:44.134Z,36.30
2017-12-29T14:33:11.750Z,35.10
2017-12-29T14:35:39.405Z,35.40
2017-12-29T14:38:07.021Z,35.60
2017-12-29T14:40:34.653Z,36.60
2017-12-29T14:43:02.294Z,35.60
2017-12-29T14:45:30.802Z,35.50
2017-12-29T14:47:58.456Z,36.00
2017-12-29T14:50:26.202Z,35.80
2017-12-29T14:52:53.923Z,35.30
2017-12-29T14:55:21.682Z,36.30
2017-12-29T14:57:49.300Z,35.60
2017-12-29T15:00:17.720Z,36.40
2017-12-29T15:02:45.501Z,36.40
2017-12-29T15:05:13.194Z,35.00
2017-12-29T15:07:40.864Z,35.10
2017-12-29T15:10:08.544Z,35.40
2017-12-29T15:12:36.248Z,35.40
2017-12-29T15:15:03.865Z,35.40
2017-12-29T15:17:32.600Z,35.90
2017-12-29T15:20:00.258Z,36.40
2017-12-29T15:22:27.877Z,36.50
2017-12-29T15:24:55.620Z,36.90
2017-12-29T15:27:23.241Z,36.00
2017-12-29T15:29:50.864Z,36.30
2017-12-29T15:32:18.769Z,35.60
2017-12-29T15:34:46.390Z,35.60
2017-12-29T15:37:14.147Z,36.30
2017-12-29T15:39:41.765Z,35.90
2017-12-29T15:42:09.397Z,35.60
2017-12-29T15:44:37.813Z,35.50
2017-12-29T15:47:05.565Z,35.50
2017-12-29T15:49:33.220Z,35.90
2017-12-29T15:52:00.838Z,36.20
2017-12-29T15:54:28.493Z,36.50
2017-12-29T15:56:56.225Z,36.90
2017-12-29T15:59:24.127Z,37.70
2017-12-29T16:01:52.557Z,38.80
2017-12-29T16:04:20.201Z,39.70
2017-12-29T16:06:47.882Z,40.20
2017-12-29T16:09:15.643Z,40.10
2017-12-29T16:11:43.363Z,40.60
2017-12-29T16:14:19.529Z,41.10
2017-12-29T16:16:57.327Z,40.70
2017-12-29T16:19:31.181Z,39.90
2017-12-29T16:22:04.113Z,39.90
2017-12-29T16:24:32.082Z,40.10
2017-12-29T16:26:59.722Z,40.80
2017-12-29T16:29:29.808Z,40.40
2017-12-29T16:32:01.291Z,40.30
2017-12-29T16:34:34.123Z,40.20
2017-12-29T16:37:02.107Z,40.30
2017-12-29T16:39:32.544Z,40.20
2017-12-29T16:42:05.426Z,40.00
2017-12-29T16:44:40.000Z,41.60
2017-12-29T16:47:08.041Z,41.60
2017-12-29T16:49:35.772Z,41.50
2017-12-29T16:52:03.393Z,41.80
2017-12-29T16:54:31.814Z,41.10
2017-12-29T16:56:59.659Z,41.10
2017-12-29T16:59:27.322Z,41.00
2017-12-29T17:01:55.066Z,40.30
2017-12-29T17:04:22.682Z,40.70
2017-12-29T17:06:50.332Z,39.70
2017-12-29T17:09:17.947Z,39.00
2017-12-29T17:11:46.373Z,39.70
2017-12-29T17:14:14.052Z,39.70
2017-12-29T17:16:41.706Z,39.00
2017-12-29T17:19:10.118Z,38.50
2017-12-29T17:21:37.737Z,38.50
2017-12-29T17:24:05.646Z,38.00
2017-12-29T17:26:33.258Z,37.70
2017-12-29T17:29:00.898Z,38.20
2017-12-29T17:31:28.540Z,37.90
2017-12-29T17:33:56.146Z,36.90
2017-12-29T17:36:23.806Z,37.00
2017-12-29T17:38:52.184Z,35.70
2017-12-29T17:41:19.807Z,35.70
2017-12-29T17:43:47.455Z,36.10
2017-12-29T17:46:15.083Z,35.80
2017-12-29T17:48:42.755Z,35.30
2017-12-29T17:51:10.384Z,35.80
2017-12-29T17:53:38.009Z,35.10
2017-12-29T17:56:05.646Z,35.00
2017-12-29T17:58:33.268Z,34.30
2017-12-29T18:01:00.917Z,34.50
2017-12-29T18:03:28.535Z,34.80
2017-12-29T18:05:56.920Z,35.10
2017-12-29T18:08:24.661Z,35.70
2017-12-29T18:11:16.047Z,35.80
2017-12-29T18:13:44.606Z,36.20
2017-12-29T18:16:12.990Z,36.70
2017-12-29T18:18:40.605Z,36.80
2017-12-29T18:21:09.033Z,38.00
2017-12-29T18:23:36.657Z,38.10
2017-12-29T18:26:04.560Z,38.10
2017-12-29T18:28:32.165Z,38.40
2017-12-29T18:30:59.852Z,39.00
2017-12-29T18:33:27.506Z,38.70
2017-12-29T18:35:55.122Z,38.60
2017-12-29T18:38:22.769Z,38.80
2017-12-29T18:40:50.394Z,38.80
2017-12-29T18:43:18.021Z,38.70
2017-12-29T18:45:45.714Z,39.70
2017-12-29T18:48:14.047Z,39.00
2017-12-29T18:50:41.737Z,39.20
2017-12-29T18:53:09.365Z,38.70
2017-12-29T18:55:36.992Z,38.70
2017-12-29T18:58:04.741Z,39.20
2017-12-29T19:00:32.349Z,40.50
2017-12-29T19:03:00.761Z,39.70
2017-12-29T19:05:28.383Z,39.70
2017-12-29T19:07:56.035Z,39.60
2017-12-29T19:10:23.694Z,39.30
2017-12-29T19:12:51.312Z,39.20
2017-12-29T19:15:19.000Z,39.40
2017-12-29T19:17:46.604Z,39.20
2017-12-29T19:20:14.210Z,39.00
2017-12-29T19:22:41.915Z,39.90
2017-12-29T19:25:10.277Z,39.50
2017-12-29T19:27:37.909Z,39.40
2017-12-29T19:30:05.637Z,38.90
2017-12-29T19:32:34.044Z,38.60
2017-12-29T19:35:01.746Z,38.60
2017-12-29T19:37:29.442Z,38.70
2017-12-29T19:39:57.088Z,38.60
2017-12-29T19:42:24.935Z,38.60
2017-12-29T19:44:52.545Z,38.30
2017-12-29T19:47:20.978Z,38.60
2017-12-29T19:49:48.616Z,38.60
2017-12-29T19:52:16.270Z,38.70
2017-12-29T19:54:43.896Z,38.70
2017-12-29T19:57:11.678Z,39.30
2017-12-29T19:59:39.322Z,38.80
2017-12-29T20:02:06.933Z,39.50
2017-12-29T20:04:34.659Z,40.00
2017-12-29T20:07:02.289Z,39.80
2017-12-29T20:09:30.674Z,40.00
2017-12-29T20:11:58.330Z,40.00
2017-12-29T20:14:25.998Z,40.60
2017-12-29T20:16:53.655Z,41.30
2017-12-29T20:19:21.289Z,42.00
2017-12-29T20:21:48.902Z,42.10
2017-12-29T20:24:16.553Z,43.10
2017-12-29T20:26:44.196Z,43.40
2017-12-29T20:29:11.863Z,44.20
2017-12-29T20:31:39.497Z,44.10
2017-12-29T20:34:07.160Z,44.50
2017-12-29T20:36:34.999Z,44.90
2017-12-29T20:39:02.613Z,45.20
2017-12-29T20:41:30.253Z,45.90
2017-12-29T20:43:57.882Z,46.00
2017-12-29T20:46:25.668Z,46.10
2017-12-29T20:48:54.124Z,47.20
2017-12-29T20:51:21.737Z,47.10
2017-12-29T20:53:49.396Z,47.90
2017-12-29T20:56:17.105Z,47.70
2017-12-29T20:58:44.926Z,48.10
2017-12-29T21:01:13.349Z,47.90
2017-12-29T21:03:40.993Z,47.90
2017-12-29T21:06:08.656Z,47.90
2017-12-29T21:08:36.281Z,48.10
2017-12-29T21:11:03.956Z,47.60
2017-12-29T21:13:31.765Z,47.70
2017-12-29T21:15:59.396Z,46.70
2017-12-29T21:18:27.075Z,47.20
2017-12-29T21:20:54.906Z,45.40
2017-12-29T21:23:22.534Z,44.30
2017-12-29T21:25:50.200Z,44.80
2017-12-29T21:28:17.833Z,43.70
2017-12-29T21:30:45.665Z,43.70
2017-12-29T21:33:13.282Z,43.20
2017-12-29T21:35:40.897Z,42.70
2017-12-29T21:38:08.565Z,42.60
2017-12-29T21:40:36.189Z,42.90
2017-12-29T21:43:03.850Z,43.10
2017-12-29T21:45:32.365Z,42.90
2017-12-29T21:47:59.981Z,42.90
2017-12-29T21:50:27.637Z,42.90
2017-12-29T21:52:56.046Z,43.30
2017-12-29T21:55:23.700Z,43.30
2017-12-29T21:57:51.305Z,42.80
2017-12-29T22:00:19.714Z,43.00
2017-12-29T22:02:47.359Z,43.00
2017-12-29T22:05:15.070Z,42.30
2017-12-29T22:07:42.725Z,42.60
2017-12-29T22:10:10.385Z,42.40
2017-12-29T22:12:37.999Z,42.70
2017-12-29T22:15:06.417Z,43.00
2017-12-29T22:17:34.124Z,43.00
2017-12-29T22:20:01.776Z,42.70
2017-12-29T22:22:29.405Z,42.40
2017-12-29T22:24:57.794Z,41.80
2017-12-29T22:27:26.278Z,41.80
2017-12-29T22:29:54.165Z,41.80
2017-12-29T22:32:21.828Z,41.40
2017-12-29T22:34:50.227Z,41.50
2017-12-29T22:37:17.848Z,41.50
2017-12-29T22:39:46.265Z,40.80
2017-12-29T22:42:13.885Z,40.80
2017-12-29T22:44:41.741Z,40.70
2017-12-29T22:47:09.356Z,41.60
2017-12-29T22:49:37.735Z,39.60
2017-12-29T22:52:05.648Z,39.60
2017-12-29T22:54:33.283Z,39.00
2017-12-29T22:57:00.947Z,39.10
2017-12-29T22:59:28.584Z,38.60
2017-12-29T23:01:57.004Z,39.30
2017-12-29T23:04:24.673Z,39.20
2017-12-29T23:06:52.286Z,39.50
2017-12-29T23:09:19.959Z,38.90
2017-12-29T23:11:47.586Z,39.60
2017-12-29T23:14:15.214Z,39.60
2017-12-29T23:16:43.646Z,39.30
2017-12-29T23:19:11.262Z,39.40
2017-12-29T23:21:38.916Z,39.20
2017-12-29T23:24:06.566Z,38.80
2017-12-29T23:26:34.221Z,38.80
2017-12-29T23:29:01.882Z,38.60
2017-12-29T23:31:29.521Z,39.10
2017-12-29T23:33:57.182Z,38.50
2017-12-29T23:36:24.946Z,38.10
2017-12-29T23:38:53.338Z,37.60
2017-12-29T23:41:21.002Z,37.60
2017-12-29T23:43:48.620Z,38.30
2017-12-29T23:46:16.276Z,36.80
2017-12-29T23:48:43.934Z,37.00
2017-12-29T23:51:11.783Z,36.20
2017-12-29T23:53:39.441Z,36.40
2017-12-29T23:56:07.076Z,36.50
2017-12-29T23:58:34.944Z,36.20
